Portada
METAR-TAF:

METAR-TAF

Aeroports :

Gerbangkertosusila, Indonèsia

latitud: 07-22-47S, longitud: 112-47-13E, altitud: 3 m

METAR: manca

Hora: 05:51 (22:51 UTC)

Pronòstic

L'informe es va fer fa 5 hores i 51 minuts, a les 17:00 UTC
Pronòstic vàlid del 11 a les 18 UTC al 12 a les 18 UTC
Vent 5 kt del Oest
Visibilitat: 4000 m
Escasses núvols a una alçada de 2000 ft
calitja
Evolucionant progressivament
l' 12 a les 00 UTC al 12 a les 02 UTC
Vent 10 kt del Est
Visibilitat 10 km o més
Probabilitat 40% :
Temporalment
l' 12 a les 13 UTC al 12 a les 16 UTC
Vent 15 kt del Sud-Oest
Visibilitat: 4000 m
Núvols disperses a una alçada de 1800 ft, Cumulonimbus.
tempesta, pluja

TAF: WARR 111700Z 1118/1218 26005KT 4000 HZ FEW020 BECMG 1200/1202 09010KT 9999 NSW PROB40 TEMPO 1213/1216 22015KT 4000 TSRA SCT018CB

Observacions i pronòstics meteorològics de més de 4000 aeroports (METAR i TAF).

Les estacions disponibles són els punts grocs i vermells al mapa.

Posi el ratolí al punt desitjat per veure el nom de l'estació.

Feu clic per veure les observacions i els pronòstics meteorològics.

Per canviar el mapa: feu clic els botons verds amb una creu de color negre per apropar; al botó verd amb un guió per allunyar la imatge; o en les fletxes verdes per a mapes adjacents.


METAR-TAF: